Time;durP1;ratioP1;P1;durP2;ratioP2;P2;SDS_P1;SDS_P2;PMS_P1;PMS_P2;Temp;Humidity;BMP_temperature;BMP_pressure;BME280_temperature;BME280_humidity;BME280_pressure;Samples;Min_cycle;Max_cycle;Signal;HPM_P1;HPM_P2
2021/01/10 00:02:15;;;;;;;55.38;24.27;;;;;;;0.31;80.93;100869.80;120787;1148;26707;-77
2021/01/10 00:04:44;;;;;;;60.07;25.20;;;;;;;0.31;81.73;100869.03;120974;1148;23106;-77
2021/01/10 00:07:15;;;;;;;67.50;25.80;;;;;;;0.31;81.13;100867.05;120879;1148;22980;-77
2021/01/10 00:09:44;;;;;;;;;;;;;;;0.30;81.45;100868.24;120848;1148;22921;-77
2021/01/10 00:12:14;;;;;;;62.35;24.00;;;;;;;0.30;81.84;100870.20;121262;1148;21627;-77
2021/01/10 00:14:44;;;;;;;57.23;23.83;;;;;;;0.31;81.26;100866.29;120936;1148;26719;-77
2021/01/10 00:17:14;;;;;;;57.20;24.92;;;;;;;0.30;81.11;100867.45;121334;1148;26245;-77
2021/01/10 00:19:45;;;;;;;58.85;22.67;;;;;;;0.30;81.80;100870.20;120743;1148;22923;-77
2021/01/10 00:22:17;;;;;;;56.20;22.37;;;;;;;0.30;81.86;100870.98;121012;1148;23312;-77
2021/01/10 00:24:47;;;;;;;59.43;23.93;;;;;;;0.29;81.06;100863.91;121003;1148;22944;-77
2021/01/10 00:27:17;;;;;;;;;;;;;;;0.29;81.10;100868.64;120828;1148;23063;-76
2021/01/10 00:29:50;;;;;;;54.55;19.70;;;;;;;0.29;81.42;100868.64;120870;1150;21647;-77
2021/01/10 00:32:21;;;;;;;51.80;21.20;;;;;;;0.29;81.21;100874.89;120990;1148;22997;-77
2021/01/10 00:34:53;;;;;;;56.33;21.63;;;;;;;0.31;81.84;100869.03;122041;1148;22937;-77
2021/01/10 00:37:24;;;;;;;47.05;19.10;;;;;;;0.30;81.88;100876.48;122012;1148;23339;-78
2021/01/10 00:39:54;;;;;;;49.57;19.00;;;;;;;0.33;81.85;100875.67;122000;1148;22975;-77
2021/01/10 00:42:25;;;;;;;51.53;18.80;;;;;;;0.33;81.90;100874.91;121760;1148;22907;-78
2021/01/10 00:44:55;;;;;;;50.63;20.17;;;;;;;0.34;81.45;100871.77;121832;1148;24398;-77
2021/01/10 00:47:26;;;;;;;47.85;18.05;;;;;;;0.36;81.66;100872.16;122059;1148;23560;-77
2021/01/10 00:49:56;;;;;;;51.93;19.23;;;;;;;0.39;81.83;100884.32;122051;1148;22976;-79
2021/01/10 00:52:30;;;;;;;46.77;19.03;;;;;;;0.40;81.02;100875.67;121717;1148;22863;-77
2021/01/10 00:55:00;;;;;;;48.27;18.60;;;;;;;0.43;81.85;100890.59;121945;1148;22975;-78
2021/01/10 00:57:30;;;;;;;47.50;17.90;;;;;;;0.47;81.67;100889.41;121927;1148;22922;-78
2021/01/10 01:00:00;;;;;;;46.10;18.50;;;;;;;0.52;81.64;100888.99;122027;1148;22923;-78
2021/01/10 01:02:32;;;;;;;41.77;17.63;;;;;;;0.52;81.40;100878.00;121850;1148;23086;-77
2021/01/10 01:05:02;;;;;;;46.27;18.17;;;;;;;0.55;81.21;100885.47;121727;1148;22948;-78
2021/01/10 01:07:35;;;;;;;44.47;16.87;;;;;;;0.55;81.25;100888.22;122047;1148;22964;-78
2021/01/10 01:10:07;;;;;;;45.05;16.65;;;;;;;0.57;81.24;100888.61;121919;1148;22926;-78
2021/01/10 01:12:37;;;;;;;42.33;15.63;;;;;;;0.59;80.96;100879.96;122085;1148;22948;-80
2021/01/10 01:15:08;;;;;;;;;;;;;;;0.62;81.62;100887.42;121737;1148;23016;-77
2021/01/10 01:17:37;;;;;;;;;;;;;;;0.62;80.79;100890.94;122414;1148;21559;-78
2021/01/10 01:20:11;;;;;;;47.50;17.00;;;;;;;0.61;81.77;100892.13;122281;1148;21640;-78
2021/01/10 01:22:40;;;;;;;45.83;17.03;;;;;;;0.60;80.93;100893.30;122380;1148;23008;-77
2021/01/10 01:25:13;;;;;;;42.33;15.20;;;;;;;0.56;81.91;100900.76;122375;1148;22923;-77
2021/01/10 01:27:45;;;;;;;40.07;15.97;;;;;;;0.50;82.13;100896.06;122243;1148;22895;-77
2021/01/10 01:30:19;;;;;;;39.30;15.17;;;;;;;0.44;81.39;100898.42;121780;1148;23124;-78
2021/01/10 01:32:50;;;;;;;46.50;17.43;;;;;;;0.44;82.27;100892.94;122287;1149;23002;-78
2021/01/10 01:35:19;;;;;;;41.37;17.02;;;;;;;0.43;82.30;100896.09;121573;1148;22956;-77
2021/01/10 01:37:50;;;;;;;49.50;20.15;;;;;;;0.46;81.88;100896.07;121485;1148;25893;-77
2021/01/10 01:40:20;;;;;;;49.63;18.52;;;;;;;0.50;81.94;100891.35;121674;1148;22947;-78
2021/01/10 01:42:50;;;;;;;48.42;19.55;;;;;;;0.54;82.29;100899.58;121754;1148;24548;-77
2021/01/10 01:45:21;;;;;;;55.20;22.95;;;;;;;0.57;81.87;100890.56;121869;1148;22919;-77
2021/01/10 01:47:51;;;;;;;55.17;20.93;;;;;;;0.61;81.97;100892.13;121732;1148;22923;-78
2021/01/10 01:50:24;;;;;;;55.60;23.50;;;;;;;0.66;82.58;100897.20;121548;1148;23803;-77
2021/01/10 01:53:01;;;;;;;57.30;23.95;;;;;;;0.68;81.70;100883.09;121952;1148;22919;-77
2021/01/10 01:55:32;;;;;;;54.87;22.37;;;;;;;0.71;81.94;100885.03;121950;1148;22923;-79
2021/01/10 01:58:04;;;;;;;49.13;21.73;;;;;;;0.76;82.50;100890.92;121682;1148;26449;-77
2021/01/10 02:00:34;;;;;;;55.90;23.70;;;;;;;0.80;82.18;100883.45;121911;1148;26504;-78
2021/01/10 02:03:04;;;;;;;55.90;22.13;;;;;;;0.83;81.69;100893.63;121380;1148;23016;-77
2021/01/10 02:05:38;;;;;;;49.53;20.60;;;;;;;0.89;81.79;100885.75;121952;1148;22912;-79
2021/01/10 02:08:10;;;;;;;54.20;23.93;;;;;;;0.96;81.93;100891.23;121340;1148;23087;-77
2021/01/10 02:10:43;;;;;;;51.03;21.27;;;;;;;1.01;82.27;100888.09;120966;1148;22985;-77
2021/01/10 02:13:16;;;;;;;49.27;20.60;;;;;;;1.07;82.35;100893.95;120811;1148;22915;-77
2021/01/10 02:15:47;;;;;;;53.97;21.83;;;;;;;1.10;82.09;100898.63;120914;1148;22923;-77
2021/01/10 02:18:18;;;;;;;51.73;20.33;;;;;;;1.13;81.91;100895.10;120779;1148;23068;-77
2021/01/10 02:20:52;;;;;;;57.50;20.77;;;;;;;1.13;81.35;100889.60;121070;1148;23615;-77
2021/01/10 02:23:27;;;;;;;55.70;21.95;;;;;;;1.15;81.53;100898.23;120828;1148;22954;-76
2021/01/10 02:25:59;;;;;;;53.60;22.23;;;;;;;1.18;81.76;100908.45;121341;1149;22916;-77
2021/01/10 02:28:30;;;;;;;46.13;18.80;;;;;;;1.14;81.56;100902.94;120927;1148;22976;-77
2021/01/10 02:31:01;;;;;;;43.47;18.53;;;;;;;1.07;81.64;100896.70;120790;1148;22889;-77
2021/01/10 02:33:41;;;;;;;44.93;18.17;;;;;;;1.02;81.94;100906.14;120922;1150;22958;-78
2021/01/10 02:36:23;;;;;;;47.97;19.17;;;;;;;0.97;82.06;100906.56;121964;1148;22958;-77
2021/01/10 02:39:02;;;;;;;45.37;17.13;;;;;;;0.91;81.84;100910.11;120666;1150;22906;-77
2021/01/10 02:41:41;;;;;;;44.63;15.90;;;;;;;0.86;82.27;100905.02;120735;1148;23087;-77
2021/01/10 02:44:21;;;;;;;43.60;17.10;;;;;;;0.83;82.29;100905.82;120806;1148;22922;-77
2021/01/10 02:46:54;;;;;;;48.10;16.42;;;;;;;0.76;82.01;100901.91;120858;1148;23106;-77
2021/01/10 02:49:24;;;;;;;41.67;15.93;;;;;;;0.72;82.61;100903.86;120754;1148;22914;-77
2021/01/10 02:51:54;;;;;;;41.60;15.35;;;;;;;0.72;81.96;100903.09;121030;1148;22944;-77
2021/01/10 02:54:24;;;;;;;40.83;15.13;;;;;;;0.72;82.25;100898.36;121046;1148;23031;-77
2021/01/10 02:56:58;;;;;;;47.33;17.07;;;;;;;0.73;82.78;100896.41;120703;1148;22910;-77
2021/01/10 02:59:31;;;;;;;45.37;16.23;;;;;;;0.73;82.38;100899.16;120942;1148;22882;-77
2021/01/10 03:02:04;;;;;;;49.80;18.03;;;;;;;0.75;82.90;100894.84;120840;1148;22972;-77
2021/01/10 03:04:35;;;;;;;48.40;18.07;;;;;;;0.78;82.85;100896.80;120740;1148;23033;-77
2021/01/10 03:07:06;;;;;;;54.80;22.30;;;;;;;0.81;82.56;100906.20;121206;1146;22904;-77
2021/01/10 03:09:37;;;;;;;49.50;17.40;;;;;;;0.81;82.35;100893.25;120736;1148;22946;-77
2021/01/10 03:12:24;;;;;;;55.03;21.70;;;;;;;0.83;82.54;100895.59;121336;1148;26472;-77
2021/01/10 03:14:55;;;;;;;53.37;21.33;;;;;;;0.86;82.67;100896.77;120763;1148;25713;-77
2021/01/10 03:17:35;;;;;;;46.30;17.87;;;;;;;0.86;82.47;100885.77;120942;1148;22957;-78
2021/01/10 03:20:09;;;;;;;46.10;17.40;;;;;;;0.85;82.81;100887.73;120695;1148;26101;-76
2021/01/10 03:22:39;;;;;;;59.37;23.40;;;;;;;0.85;82.93;100895.22;120995;1148;23953;-77
2021/01/10 03:25:10;;;;;;;49.88;17.85;;;;;;;0.85;82.37;100882.23;120837;1148;22931;-77
2021/01/10 03:27:40;;;;;;;43.63;17.67;;;;;;;0.86;82.85;100877.52;120917;1148;27099;-77
2021/01/10 03:30:15;;;;;;;39.40;15.57;;;;;;;0.85;82.67;100878.72;120780;1149;23087;-77
2021/01/10 03:32:45;;;;;;;42.30;16.53;;;;;;;0.85;82.66;100876.73;120851;1148;22908;-79
2021/01/10 03:35:17;;;;;;;41.80;16.00;;;;;;;0.85;83.07;100878.72;120928;1148;22923;-77
2021/01/10 03:37:47;;;;;;;43.07;16.13;;;;;;;0.84;82.90;100877.93;120680;1148;26646;-77
2021/01/10 03:40:18;;;;;;;36.87;14.63;;;;;;;0.86;83.18;100881.06;120897;1148;23087;-77
2021/01/10 03:42:48;;;;;;;45.87;16.67;;;;;;;0.88;82.54;100877.91;120860;1148;22979;-77
2021/01/10 03:45:18;;;;;;;42.13;16.17;;;;;;;0.83;82.51;100884.59;120794;1150;24700;-77
2021/01/10 03:47:49;;;;;;;40.17;15.90;;;;;;;0.82;83.33;100883.05;120663;1148;22930;-77
2021/01/10 03:50:18;;;;;;;;;;;;;;;0.80;82.66;100888.95;120803;1148;22886;-77
2021/01/10 03:52:48;;;;;;;40.33;15.27;;;;;;;0.78;83.15;100885.02;120866;1148;24091;-76
2021/01/10 03:55:18;;;;;;;38.57;16.10;;;;;;;0.81;82.72;100874.00;120714;1150;22976;-77
2021/01/10 03:57:49;;;;;;;41.92;16.12;;;;;;;0.81;82.97;100878.72;120831;1148;23067;-77
2021/01/10 04:00:20;;;;;;;43.17;17.30;;;;;;;0.78;83.27;100883.06;121127;1148;22864;-77
2021/01/10 04:02:50;;;;;;;41.80;15.30;;;;;;;0.75;83.22;100883.84;120655;1148;22976;-77
2021/01/10 04:05:20;;;;;;;44.20;16.80;;;;;;;0.74;82.99;100878.75;120992;1148;22958;-77
2021/01/10 04:07:50;;;;;;;45.17;16.30;;;;;;;0.75;83.21;100885.80;120801;1148;22941;-77
2021/01/10 04:10:20;;;;;;;41.68;16.85;;;;;;;0.77;83.06;100881.48;120863;1148;23005;-77
2021/01/10 04:12:49;;;;;;;43.78;17.70;;;;;;;0.75;82.78;100878.34;120591;1148;28599;-77
2021/01/10 04:15:19;;;;;;;44.23;17.15;;;;;;;0.74;82.62;100881.50;121053;1148;22975;-77
2021/01/10 04:17:49;;;;;;;46.65;17.80;;;;;;;0.74;82.91;100884.25;120888;1148;22976;-77
2021/01/10 04:20:18;;;;;;;;;;;;;;;0.74;82.69;100884.25;120764;1148;22948;-77
2021/01/10 04:22:48;;;;;;;48.47;19.00;;;;;;;0.74;83.10;100881.50;120981;1150;21575;-77
2021/01/10 04:25:18;;;;;;;44.93;17.27;;;;;;;0.75;82.80;100883.05;120705;1148;22901;-77
2021/01/10 04:27:48;;;;;;;44.35;17.32;;;;;;;0.76;83.00;100885.42;120748;1148;23028;-77
2021/01/10 04:30:18;;;;;;;44.43;16.37;;;;;;;0.76;83.40;100888.17;120829;1148;24372;-77
2021/01/10 04:32:50;;;;;;;42.67;17.07;;;;;;;0.75;82.63;100888.55;120924;1148;27270;-77
2021/01/10 04:35:20;;;;;;;44.50;18.30;;;;;;;0.75;83.21;100894.84;120804;1148;23425;-77
2021/01/10 04:37:51;;;;;;;44.50;18.57;;;;;;;0.75;83.02;100889.34;121019;1148;22945;-77
2021/01/10 04:40:21;;;;;;;44.67;17.13;;;;;;;0.77;82.85;100895.22;121041;1148;22979;-77
2021/01/10 04:42:50;;;;;;;;;;;;;;;0.75;83.17;100894.05;121132;1148;23008;-77
2021/01/10 04:45:21;;;;;;;46.80;18.90;;;;;;;0.77;83.36;100908.17;120947;1150;21572;-77
2021/01/10 04:47:51;;;;;;;42.80;16.97;;;;;;;0.76;82.71;100903.88;120640;1148;22923;-77
2021/01/10 04:50:23;;;;;;;44.80;17.33;;;;;;;0.76;83.30;100901.13;120815;1148;22948;-78
2021/01/10 04:52:56;;;;;;;49.23;19.07;;;;;;;0.77;83.08;100905.42;120677;1148;24728;-77
2021/01/10 04:55:27;;;;;;;44.03;18.17;;;;;;;0.79;82.82;100903.06;121094;1148;23154;-77
2021/01/10 04:58:04;;;;;;;45.33;17.63;;;;;;;0.77;83.17;100911.71;121042;1148;22926;-76
2021/01/10 05:00:36;;;;;;;46.07;17.93;;;;;;;0.80;82.89;100910.94;120712;1148;23215;-77
2021/01/10 05:03:09;;;;;;;46.23;18.77;;;;;;;0.77;83.30;100911.71;120797;1150;23084;-77
2021/01/10 05:05:39;;;;;;;45.10;17.00;;;;;;;0.74;83.34;100907.02;121023;1148;27516;-76
2021/01/10 05:08:09;;;;;;;;;;;;;;;0.75;83.46;100905.83;120686;1151;22948;-77
2021/01/10 05:10:40;;;;;;;47.93;18.35;;;;;;;0.74;82.92;100911.73;121021;1148;21569;-76
2021/01/10 05:13:11;;;;;;;47.57;19.17;;;;;;;0.73;83.36;100912.89;120970;1148;22923;-78
2021/01/10 05:15:43;;;;;;;47.05;18.85;;;;;;;0.76;82.98;100906.62;120929;1148;23058;-77
2021/01/10 05:18:13;;;;;;;48.17;18.90;;;;;;;0.76;83.72;100914.86;120795;1148;23024;-77
2021/01/10 05:20:46;;;;;;;;;;;;;;;0.77;83.33;100911.71;120930;1148;23051;-78
2021/01/10 05:23:16;;;;;;;47.77;18.60;;;;;;;0.75;83.63;100916.82;120947;1150;21563;-77
2021/01/10 05:26:03;;;;;;;45.92;18.60;;;;;;;0.77;83.01;100919.16;120622;1148;22948;-77
2021/01/10 05:28:34;;;;;;;47.23;19.17;;;;;;;0.76;83.76;100912.11;120940;1148;22922;-77
2021/01/10 05:31:09;;;;;;;45.80;18.67;;;;;;;0.76;83.67;100912.91;120760;1148;22923;-77
2021/01/10 05:33:50;;;;;;;44.07;18.53;;;;;;;0.76;83.45;100910.16;120844;1148;23036;-77
2021/01/10 05:36:29;;;;;;;51.20;20.15;;;;;;;0.78;83.69;100912.50;121009;1148;22926;-77
2021/01/10 05:39:14;;;;;;;43.37;16.97;;;;;;;0.78;83.49;100918.79;120844;1148;22969;-77
2021/01/10 05:41:51;;;;;;;48.20;17.17;;;;;;;0.78;83.89;100924.28;120666;1148;22989;-79
2021/01/10 05:44:23;;;;;;;50.50;18.30;;;;;;;0.80;83.37;100919.18;121050;1148;23058;-77
2021/01/10 05:47:03;;;;;;;48.90;17.95;;;;;;;0.77;83.67;100919.95;120742;1150;26446;-77
2021/01/10 05:49:34;;;;;;;44.00;16.35;;;;;;;0.79;83.71;100931.34;120926;1148;22899;-77
2021/01/10 05:52:09;;;;;;;44.25;17.90;;;;;;;0.81;83.28;100933.68;120953;1148;23669;-77
2021/01/10 05:54:40;;;;;;;45.90;18.30;;;;;;;0.83;83.60;100927.81;120841;1148;24577;-77
2021/01/10 05:57:12;;;;;;;45.97;17.53;;;;;;;0.85;83.77;100930.95;120859;1148;23157;-77
2021/01/10 05:59:49;;;;;;;45.43;16.97;;;;;;;0.83;83.61;100933.31;120834;1148;23037;-77
2021/01/10 06:02:30;;;;;;;43.87;16.60;;;;;;;0.83;83.98;100936.05;120744;1148;22958;-77
2021/01/10 06:05:14;;;;;;;43.25;16.60;;;;;;;0.80;83.49;100932.13;120773;1148;22901;-77
2021/01/10 06:07:45;;;;;;;43.13;15.80;;;;;;;0.80;83.58;100937.63;120848;1148;23048;-78
2021/01/10 06:10:27;;;;;;;44.33;18.40;;;;;;;0.81;83.76;100939.97;120779;1148;26373;-77
2021/01/10 06:13:04;;;;;;;46.30;17.13;;;;;;;0.81;83.98;100941.92;120760;1148;22976;-77
2021/01/10 06:15:35;;;;;;;44.63;17.30;;;;;;;0.81;83.97;100939.97;120785;1148;22948;-77
2021/01/10 06:18:06;;;;;;;45.70;17.00;;;;;;;0.82;84.01;100946.26;120761;1148;26430;-77
2021/01/10 06:20:38;;;;;;;41.57;16.80;;;;;;;0.83;84.04;100940.36;120920;1148;22902;-79
2021/01/10 06:23:08;;;;;;;40.90;16.83;;;;;;;0.84;83.95;100943.90;120797;1148;23087;-77
2021/01/10 06:25:38;;;;;;;;;;;;;;;0.83;83.90;100943.11;120757;1148;22885;-77
2021/01/10 06:28:13;;;;;;;42.10;17.60;;;;;;;0.81;84.04;100942.72;120783;1148;21563;-77
2021/01/10 06:30:51;;;;;;;41.47;15.80;;;;;;;0.81;84.03;100945.47;120822;1148;26382;-77
2021/01/10 06:33:30;;;;;;;47.93;16.67;;;;;;;0.83;84.05;100947.05;121027;1148;23035;-77
2021/01/10 06:36:04;;;;;;;42.30;16.55;;;;;;;0.81;84.03;100948.22;120847;1149;22933;-77
2021/01/10 06:38:35;;;;;;;44.40;18.50;;;;;;;0.84;84.24;100943.90;120872;1148;22948;-78
2021/01/10 06:41:28;;;;;;;46.20;17.90;;;;;;;0.85;83.57;100952.94;120966;1148;22990;-77
2021/01/10 06:44:00;;;;;;;47.87;17.23;;;;;;;0.86;83.78;100951.74;120911;1148;23053;-77
2021/01/10 06:46:30;;;;;;;50.10;18.30;;;;;;;0.89;83.50;100950.96;120885;1148;23087;-77
2021/01/10 06:49:01;;;;;;;44.33;18.17;;;;;;;0.89;83.62;100948.98;120826;1148;27437;-77
2021/01/10 06:51:33;;;;;;;54.47;20.67;;;;;;;0.91;84.05;100948.60;120835;1148;27799;-77
2021/01/10 06:54:05;;;;;;;48.90;19.53;;;;;;;0.89;83.60;100959.97;120720;1148;25945;-77
2021/01/10 06:56:35;;;;;;;45.83;17.03;;;;;;;0.88;83.91;100957.62;120781;1148;22931;-77
2021/01/10 06:59:07;;;;;;;43.37;17.93;;;;;;;0.84;84.16;100960.39;120843;1148;23033;-77
2021/01/10 07:01:58;;;;;;;70.90;30.40;;;;;;;0.83;83.83;100959.59;120795;1148;23192;-77
2021/01/10 07:05:03;;;;;;;52.37;22.20;;;;;;;0.81;84.24;100964.70;120758;1151;23000;-77
2021/01/10 07:07:43;;;;;;;52.37;23.30;;;;;;;0.80;84.12;100968.65;120699;1148;23076;-77
2021/01/10 07:10:25;;;;;;;54.98;22.95;;;;;;;0.81;83.67;100972.95;120659;1148;22919;-77
2021/01/10 07:13:15;;;;;;;53.80;22.00;;;;;;;0.81;84.29;100966.66;120948;1149;22926;-77
2021/01/10 07:15:45;;;;;;;47.03;19.77;;;;;;;0.82;84.38;100968.25;120822;1148;25698;-77
2021/01/10 07:18:16;;;;;;;55.23;22.10;;;;;;;0.81;84.23;100972.95;120893;1148;22934;-76
2021/01/10 07:20:46;;;;;;;56.40;23.43;;;;;;;0.82;84.30;100962.75;120692;1148;23373;-77
2021/01/10 07:23:34;;;;;;;52.43;22.45;;;;;;;0.83;83.83;100964.30;120622;1148;22919;-77
2021/01/10 07:26:04;;;;;;;55.13;21.47;;;;;;;0.83;84.26;100974.53;120768;1148;23399;-77
2021/01/10 07:28:42;;;;;;;55.17;23.22;;;;;;;0.82;84.42;100973.75;120815;1148;26363;-77
2021/01/10 07:31:18;;;;;;;52.07;21.43;;;;;;;0.82;84.10;100976.49;120834;1148;23086;-77
2021/01/10 07:34:10;;;;;;;52.65;20.45;;;;;;;0.83;84.32;100974.53;120877;1148;22905;-77
2021/01/10 07:36:55;;;;;;;47.40;21.35;;;;;;;0.81;84.36;100978.45;120940;1148;22944;-76
2021/01/10 07:39:28;;;;;;;48.67;20.17;;;;;;;0.80;84.03;100979.64;120738;1148;27870;-77
2021/01/10 07:42:18;;;;;;;44.93;18.27;;;;;;;0.78;84.13;100973.76;120861;1148;23087;-77
2021/01/10 07:44:48;;;;;;;48.20;20.20;;;;;;;0.76;84.27;100981.61;120783;1148;23468;-77
2021/01/10 07:47:19;;;;;;;49.70;20.02;;;;;;;0.77;84.69;100979.63;120683;1148;22959;-77
2021/01/10 07:49:52;;;;;;;46.80;19.57;;;;;;;0.75;84.67;100979.23;120969;1148;22922;-77
2021/01/10 07:52:50;;;;;;;49.77;20.10;;;;;;;0.76;84.69;100981.61;120884;1148;27664;-77
2021/01/10 07:55:25;;;;;;;48.77;19.67;;;;;;;0.75;84.47;100981.98;120829;1148;22993;-77
2021/01/10 07:58:21;;;;;;;47.33;20.23;;;;;;;0.73;84.76;100985.14;120698;1148;22975;-77
2021/01/10 08:00:55;;;;;;;52.40;20.97;;;;;;;0.73;84.89;100987.89;121092;1148;22885;-77
2021/01/10 08:03:27;;;;;;;51.33;19.90;;;;;;;0.74;85.09;100983.19;120806;1148;22955;-77
2021/01/10 08:05:59;;;;;;;57.95;23.20;;;;;;;0.77;84.55;100987.88;120954;1148;27590;-77
2021/01/10 08:08:45;;;;;;;54.23;21.07;;;;;;;0.83;85.02;100991.03;120709;1148;22934;-77
2021/01/10 08:11:32;;;;;;;52.73;22.50;;;;;;;0.86;85.10;100987.47;120865;1148;26356;-77
2021/01/10 08:14:10;;;;;;;54.63;22.17;;;;;;;0.89;84.84;100990.20;120870;1148;27356;-76
2021/01/10 08:16:40;;;;;;;57.40;23.00;;;;;;;0.92;84.92;100997.67;120729;1148;24547;-76
2021/01/10 08:19:10;;;;;;;53.52;21.65;;;;;;;0.94;84.64;100992.56;120909;1148;23028;-77
2021/01/10 08:21:41;;;;;;;47.77;20.00;;;;;;;0.94;85.00;100994.52;121091;1148;22923;-77
2021/01/10 08:24:14;;;;;;;49.13;18.23;;;;;;;0.93;84.61;101001.22;121124;1148;26373;-77
2021/01/10 08:26:45;;;;;;;55.40;20.63;;;;;;;0.92;84.64;101003.17;120809;1150;22863;-77
2021/01/10 08:29:15;;;;;;;;;;;;;;;0.91;85.03;100996.09;120936;1148;24506;-77
2021/01/10 08:31:52;;;;;;;50.53;19.20;;;;;;;0.90;85.08;101000.04;121152;1150;24588;-78
2021/01/10 08:34:23;;;;;;;58.40;21.07;;;;;;;0.92;85.49;100996.89;121246;1148;22901;-78
2021/01/10 08:36:54;;;;;;;55.38;20.15;;;;;;;0.90;84.87;101000.04;121108;1148;22930;-78
2021/01/10 08:39:24;;;;;;;47.70;18.00;;;;;;;0.88;85.42;101002.39;121146;1148;22943;-78
2021/01/10 08:41:55;;;;;;;57.25;21.07;;;;;;;0.87;85.02;101003.56;121125;1148;23494;-78
2021/01/10 08:44:26;;;;;;;57.37;20.80;;;;;;;0.89;85.56;101012.20;121318;1148;22881;-78
2021/01/10 08:46:58;;;;;;;53.70;20.00;;;;;;;0.90;85.18;101013.78;121238;1148;27253;-78
2021/01/10 08:49:28;;;;;;;56.13;21.33;;;;;;;0.92;85.45;101016.92;121126;1148;22920;-78
2021/01/10 08:52:03;;;;;;;54.73;20.95;;;;;;;0.95;85.24;101010.64;121239;1148;26392;-78
2021/01/10 08:54:33;;;;;;;57.57;21.73;;;;;;;1.00;85.79;101017.69;121284;1148;22934;-79
2021/01/10 08:57:06;;;;;;;59.07;21.00;;;;;;;1.03;85.57;101009.45;121202;1148;22935;-78
2021/01/10 08:59:39;;;;;;;57.07;20.97;;;;;;;1.06;85.31;101014.14;121228;1148;24490;-78
2021/01/10 09:02:12;;;;;;;58.35;22.25;;;;;;;1.11;85.71;101013.75;121228;1148;22870;-78
2021/01/10 09:04:44;;;;;;;50.43;20.60;;;;;;;1.12;84.98;101020.80;121346;1150;22981;-79
2021/01/10 09:07:24;;;;;;;53.40;20.80;;;;;;;1.14;85.79;101017.68;121535;1148;22926;-78
2021/01/10 09:09:59;;;;;;;56.63;20.63;;;;;;;1.16;85.23;101020.81;121083;1148;23567;-78
2021/01/10 09:12:37;;;;;;;62.87;21.07;;;;;;;1.19;85.76;101014.51;121675;1148;27231;-79
2021/01/10 09:15:14;;;;;;;51.67;19.97;;;;;;;1.22;85.23;101019.23;121093;1148;24764;-78
2021/01/10 09:17:48;;;;;;;52.95;20.10;;;;;;;1.26;85.44;101020.77;121186;1150;23033;-78
2021/01/10 09:20:24;;;;;;;53.07;21.67;;;;;;;1.30;85.17;101015.27;121487;1148;23016;-79
2021/01/10 09:22:54;;;;;;;54.43;20.07;;;;;;;1.34;85.30;101024.30;121391;1148;22963;-78
2021/01/10 09:25:25;;;;;;;60.40;21.12;;;;;;;1.38;85.50;101028.61;121423;1150;22885;-78
2021/01/10 09:28:09;;;;;;;47.03;18.57;;;;;;;1.41;85.27;101032.52;121279;1148;22948;-79
2021/01/10 09:30:42;;;;;;;45.87;17.83;;;;;;;1.43;85.15;101030.15;121681;1147;22921;-78
2021/01/10 09:33:14;;;;;;;50.87;18.63;;;;;;;1.45;85.61;101028.58;121219;1148;25900;-78
2021/01/10 09:35:46;;;;;;;37.30;14.65;;;;;;;1.45;85.04;101025.83;121148;1148;22968;-80
2021/01/10 09:38:19;;;;;;;41.80;15.05;;;;;;;1.47;85.38;101030.92;122088;1148;22981;-78
2021/01/10 09:41:05;;;;;;;37.30;13.57;;;;;;;1.48;85.07;101027.00;121382;1148;22928;-79
2021/01/10 09:43:37;;;;;;;39.13;14.97;;;;;;;1.53;85.02;101032.11;120880;1148;22922;-79
2021/01/10 09:46:35;;;;;;;38.90;13.97;;;;;;;1.55;85.02;101022.24;121013;1148;23087;-77
2021/01/10 09:49:08;;;;;;;38.60;14.77;;;;;;;1.60;85.44;101023.80;120919;1148;22974;-77
2021/01/10 09:51:40;;;;;;;40.70;14.05;;;;;;;1.65;85.22;101026.16;120782;1148;22906;-75
2021/01/10 09:54:18;;;;;;;36.87;13.07;;;;;;;1.63;84.86;101026.53;120827;1148;22947;-76
2021/01/10 09:56:49;;;;;;;33.30;12.07;;;;;;;1.64;85.08;101027.33;120675;1148;23030;-76
2021/01/10 09:59:38;;;;;;;31.70;11.30;;;;;;;1.65;84.84;101026.16;120830;1148;23030;-76
2021/01/10 10:02:11;;;;;;;22.15;6.80;;;;;;;1.63;84.85;101025.77;121010;1148;24602;-75
2021/01/10 10:04:44;;;;;;;25.27;7.93;;;;;;;1.62;84.95;101018.69;121502;1148;22990;-78
2021/01/10 10:07:30;;;;;;;21.65;7.70;;;;;;;1.62;84.57;101024.19;122006;1148;22958;-79
2021/01/10 10:10:00;;;;;;;20.87;6.03;;;;;;;1.59;84.36;101020.27;121235;1148;22925;-76
2021/01/10 10:12:31;;;;;;;20.83;7.17;;;;;;;1.61;84.51;101011.62;121144;1148;22971;-79
2021/01/10 10:15:06;;;;;;;18.87;7.08;;;;;;;1.60;84.37;101013.59;121017;1148;22976;-78
2021/01/10 10:17:38;;;;;;;19.97;6.63;;;;;;;1.58;84.22;101015.16;121220;1148;24472;-78
2021/01/10 10:20:11;;;;;;;18.03;5.30;;;;;;;1.58;84.56;101012.41;121567;1149;22927;-75
2021/01/10 10:22:41;;;;;;;20.17;6.97;;;;;;;1.59;84.70;101009.25;120715;1148;22973;-76
2021/01/10 10:25:12;;;;;;;19.48;6.42;;;;;;;1.61;84.20;101012.39;120956;1148;22930;-78
2021/01/10 10:27:57;;;;;;;21.00;7.00;;;;;;;1.61;84.32;101012.39;121337;1148;22926;-78
2021/01/10 10:30:28;;;;;;;18.80;7.53;;;;;;;1.60;84.56;101010.05;121524;1150;22910;-78
2021/01/10 10:33:00;;;;;;;20.00;6.67;;;;;;;1.55;84.28;101005.73;121335;1150;22864;-77
2021/01/10 10:35:30;;;;;;;18.90;5.87;;;;;;;1.51;84.39;101009.70;121376;1148;22937;-78
2021/01/10 10:38:05;;;;;;;17.63;5.30;;;;;;;1.46;84.30;101013.65;121360;1148;23433;-77
2021/01/10 10:40:35;;;;;;;18.63;6.33;;;;;;;1.44;84.25;101010.52;121156;1149;22928;-78
2021/01/10 10:43:07;;;;;;;18.90;6.23;;;;;;;1.45;84.86;101011.27;121225;1148;23035;-78
2021/01/10 10:45:36;;;;;;;25.57;8.07;;;;;;;1.45;85.01;101011.27;121278;1148;22945;-78
2021/01/10 10:48:18;;;;;;;19.77;5.42;;;;;;;1.44;84.76;101010.52;121349;1148;22944;-85
2021/01/10 10:50:50;;;;;;;16.93;4.83;;;;;;;1.42;85.04;101007.38;121731;1150;22995;-81
2021/01/10 10:53:31;;;;;;;15.73;4.30;;;;;;;1.39;84.50;101004.62;122438;1148;23004;-80
2021/01/10 10:56:01;;;;;;;17.30;5.65;;;;;;;1.39;84.61;101005.41;121476;1149;22906;-77
2021/01/10 10:58:31;;;;;;;19.52;6.05;;;;;;;1.38;84.46;101000.31;121395;1150;22886;-78
2021/01/10 11:01:00;;;;;;;;;;;;;;;1.36;84.82;100994.42;121243;1150;22886;-77
2021/01/10 11:03:30;;;;;;;19.77;4.90;;;;;;;1.35;84.44;100993.63;121101;1150;21630;-77
2021/01/10 11:06:01;;;;;;;19.17;6.08;;;;;;;1.35;84.50;100992.84;121081;1150;22923;-78
2021/01/10 11:08:32;;;;;;;15.72;4.58;;;;;;;1.33;84.54;100989.70;121319;1148;22971;-77
2021/01/10 11:11:04;;;;;;;18.35;5.05;;;;;;;1.33;84.65;100992.45;121908;1148;24349;-77
2021/01/10 11:13:34;;;;;;;17.93;5.50;;;;;;;1.32;84.70;100994.45;120979;1148;26354;-77
2021/01/10 11:16:05;;;;;;;19.57;5.83;;;;;;;1.32;84.89;100990.91;120894;1148;22972;-77
2021/01/10 11:18:35;;;;;;;17.70;5.17;;;;;;;1.31;84.82;100989.32;121246;1148;22913;-76
2021/01/10 11:21:06;;;;;;;19.75;5.35;;;;;;;1.30;85.01;100988.56;121136;1148;25699;-77
2021/01/10 11:23:36;;;;;;;18.90;5.80;;;;;;;1.29;85.05;100973.22;121154;1148;27591;-76
2021/01/10 11:26:07;;;;;;;25.35;7.45;;;;;;;1.30;85.16;100971.27;121151;1148;26345;-76
2021/01/10 11:28:36;;;;;;;20.13;6.57;;;;;;;1.32;84.75;100977.16;120949;1150;22957;-79
2021/01/10 11:31:09;;;;;;;22.30;6.62;;;;;;;1.28;85.29;100979.89;121454;1148;22941;-78
2021/01/10 11:33:44;;;;;;;22.83;6.73;;;;;;;1.26;84.78;100978.75;121648;1148;22935;-78
2021/01/10 11:36:14;;;;;;;24.87;7.87;;;;;;;1.28;84.99;100981.88;120995;1148;25954;-77
2021/01/10 11:38:46;;;;;;;21.97;7.37;;;;;;;1.28;85.88;100977.14;121361;1148;22945;-78
2021/01/10 11:41:18;;;;;;;23.03;7.17;;;;;;;1.29;85.36;100986.98;122027;1148;22917;-78
2021/01/10 11:43:48;;;;;;;23.67;7.43;;;;;;;1.27;85.07;100972.05;121310;1148;23007;-79